createdAt,value
2019-05-02T00:01:32.463Z,29.07
2019-05-02T00:04:00.522Z,28.67
2019-05-02T00:06:29.160Z,28.70
2019-05-02T00:08:57.837Z,28.00
2019-05-02T00:11:26.406Z,28.62
2019-05-02T00:13:54.476Z,30.05
2019-05-02T00:16:22.596Z,29.83
2019-05-02T00:18:50.903Z,30.10
2019-05-02T00:21:19.206Z,30.43
2019-05-02T00:23:47.486Z,29.40
2019-05-02T00:26:15.525Z,31.30
2019-05-02T00:28:48.213Z,30.82
2019-05-02T00:31:13.380Z,30.95
2019-05-02T00:33:41.887Z,30.75
2019-05-02T00:36:09.976Z,31.20
2019-05-02T00:38:39.750Z,32.60
2019-05-02T00:41:09.554Z,31.23
2019-05-02T00:43:37.679Z,31.52
2019-05-02T00:46:05.751Z,31.95
2019-05-02T00:48:41.802Z,31.73
2019-05-02T00:51:09.882Z,33.25
2019-05-02T00:53:37.931Z,32.28
2019-05-02T00:56:09.055Z,33.10
2019-05-02T00:58:36.008Z,32.83
2019-05-02T01:01:29.660Z,33.70
2019-05-02T01:03:59.292Z,32.95
2019-05-02T01:06:27.417Z,33.85
2019-05-02T01:08:57.299Z,33.35
2019-05-02T01:11:28.287Z,32.83
2019-05-02T01:13:56.134Z,34.03
2019-05-02T01:16:25.051Z,34.18
2019-05-02T01:18:53.119Z,33.83
2019-05-02T01:21:21.533Z,34.80
2019-05-02T01:23:49.631Z,35.20
2019-05-02T01:26:17.935Z,34.15
2019-05-02T01:29:02.279Z,35.05
2019-05-02T01:32:07.611Z,34.95
2019-05-02T01:34:54.426Z,33.18
2019-05-02T01:37:40.316Z,33.90
2019-05-02T01:40:08.630Z,34.40
2019-05-02T01:42:39.885Z,34.38
2019-05-02T01:45:11.223Z,34.27
2019-05-02T01:47:37.943Z,33.97
2019-05-02T01:50:06.038Z,33.15
2019-05-02T01:52:34.028Z,35.50
2019-05-02T01:55:02.218Z,35.43
2019-05-02T01:57:30.382Z,35.30
2019-05-02T01:59:58.453Z,35.40
2019-05-02T02:02:28.072Z,35.52
2019-05-02T02:04:56.921Z,33.00
2019-05-02T02:07:26.042Z,34.88
2019-05-02T02:09:54.157Z,35.03
2019-05-02T02:12:22.232Z,35.17
2019-05-02T02:14:53.342Z,35.35
2019-05-02T02:17:20.124Z,34.88
2019-05-02T02:19:52.941Z,34.65
2019-05-02T02:22:39.268Z,36.03
2019-05-02T02:25:32.322Z,35.13
2019-05-02T02:28:02.569Z,34.08
2019-05-02T02:30:30.637Z,33.45
2019-05-02T02:33:00.509Z,33.45
2019-05-02T02:35:28.551Z,34.27
2019-05-02T02:37:56.653Z,33.50
2019-05-02T02:40:32.592Z,32.93
2019-05-02T02:42:56.041Z,32.10
2019-05-02T02:45:44.983Z,32.88
2019-05-02T02:48:13.107Z,33.38
2019-05-02T02:50:43.019Z,32.60
2019-05-02T02:53:10.916Z,33.38
2019-05-02T02:55:39.232Z,33.80
2019-05-02T02:58:07.452Z,33.35
2019-05-02T03:00:35.616Z,33.98
2019-05-02T03:03:03.803Z,30.90
2019-05-02T03:05:31.939Z,30.90
2019-05-02T03:08:05.474Z,31.42
2019-05-02T03:10:29.804Z,32.35
2019-05-02T03:13:21.925Z,30.90
2019-05-02T03:15:50.071Z,30.72
2019-05-02T03:18:19.989Z,31.65
2019-05-02T03:20:49.562Z,30.40
2019-05-02T03:23:21.774Z,31.90
2019-05-02T03:25:51.276Z,31.60
2019-05-02T03:28:20.350Z,31.30
2019-05-02T03:30:47.393Z,32.23
2019-05-02T03:33:15.501Z,29.45
2019-05-02T03:35:48.641Z,30.08
2019-05-02T03:38:13.308Z,30.08
2019-05-02T03:40:42.134Z,30.25
2019-05-02T03:43:10.227Z,32.70
2019-05-02T03:45:40.113Z,30.92
2019-05-02T03:48:08.110Z,31.02
2019-05-02T03:50:36.781Z,33.00
2019-05-02T03:53:04.857Z,33.43
2019-05-02T03:55:33.983Z,32.73
2019-05-02T03:58:13.204Z,32.28
2019-05-02T04:00:32.081Z,31.70
2019-05-02T04:03:02.432Z,33.70
2019-05-02T04:05:33.793Z,33.48
2019-05-02T04:07:59.680Z,34.48
2019-05-02T04:10:59.416Z,35.95
2019-05-02T04:13:22.464Z,36.23
2019-05-02T04:15:50.545Z,34.78
2019-05-02T04:18:18.861Z,34.25
2019-05-02T04:20:49.721Z,35.28
2019-05-02T04:23:21.386Z,34.83
2019-05-02T04:25:46.708Z,35.83
2019-05-02T04:28:14.910Z,36.55
2019-05-02T04:30:45.295Z,37.23
2019-05-02T04:33:12.789Z,36.80
2019-05-02T04:35:41.144Z,36.65
2019-05-02T04:38:20.365Z,36.33
2019-05-02T04:40:46.425Z,36.98
2019-05-02T04:43:11.810Z,38.17
2019-05-02T04:45:53.038Z,36.42
2019-05-02T04:48:09.726Z,37.15
2019-05-02T04:50:38.000Z,36.50
2019-05-02T04:53:08.587Z,38.03
2019-05-02T04:55:38.073Z,39.00
2019-05-02T04:58:08.156Z,39.03
2019-05-02T05:00:35.419Z,38.25
2019-05-02T05:03:09.428Z,39.20
2019-05-02T05:05:33.251Z,41.25
2019-05-02T05:08:02.169Z,40.38
2019-05-02T05:10:40.170Z,41.28
2019-05-02T05:12:59.977Z,39.63
2019-05-02T05:15:40.152Z,40.65
2019-05-02T05:17:58.244Z,41.67
2019-05-02T05:20:28.049Z,41.53
2019-05-02T05:22:58.072Z,44.18
2019-05-02T05:25:32.507Z,44.77
2019-05-02T05:28:05.624Z,45.60
2019-05-02T05:30:30.261Z,48.40
2019-05-02T05:32:58.571Z,49.42
2019-05-02T05:35:28.135Z,49.05
2019-05-02T05:37:57.346Z,51.85
2019-05-02T05:40:30.330Z,50.63
2019-05-02T05:42:57.243Z,47.35
2019-05-02T05:45:27.779Z,49.40
2019-05-02T05:47:59.327Z,48.60
2019-05-02T05:50:27.485Z,51.25
2019-05-02T05:52:55.074Z,49.67
2019-05-02T05:55:24.455Z,47.73
2019-05-02T05:57:59.935Z,46.97
2019-05-02T06:00:23.473Z,48.23
2019-05-02T06:02:56.291Z,45.85
2019-05-02T06:05:21.545Z,47.07
2019-05-02T06:07:49.611Z,44.75
2019-05-02T06:10:17.735Z,46.87
2019-05-02T06:12:45.805Z,46.75
2019-05-02T06:15:13.895Z,47.70
2019-05-02T06:17:41.989Z,46.83
2019-05-02T06:20:10.201Z,47.73
2019-05-02T06:22:38.953Z,46.48
2019-05-02T06:25:09.318Z,48.28
2019-05-02T06:27:37.420Z,46.25
2019-05-02T06:30:05.873Z,48.50
2019-05-02T06:32:33.932Z,48.90
2019-05-02T06:35:02.116Z,47.43
2019-05-02T06:37:30.356Z,47.65
2019-05-02T06:39:58.424Z,48.73
2019-05-02T06:42:27.687Z,46.88
2019-05-02T06:44:59.783Z,49.45
2019-05-02T06:47:26.087Z,46.60
2019-05-02T06:49:56.186Z,46.42
2019-05-02T06:52:27.202Z,47.48
2019-05-02T06:54:54.101Z,49.77
2019-05-02T06:57:24.129Z,49.03
2019-05-02T06:59:54.759Z,47.67
2019-05-02T07:02:23.266Z,48.38
2019-05-02T07:04:54.750Z,48.63
2019-05-02T07:07:25.070Z,48.23
2019-05-02T07:09:50.834Z,48.13
2019-05-02T07:12:19.003Z,45.55
2019-05-02T07:14:47.137Z,47.63
2019-05-02T07:17:38.412Z,46.00
2019-05-02T07:20:06.739Z,49.73
2019-05-02T07:22:38.642Z,48.43
2019-05-02T07:25:06.857Z,49.10
2019-05-02T07:27:35.643Z,48.73
2019-05-02T07:30:05.057Z,47.75
2019-05-02T07:32:33.164Z,48.95
2019-05-02T07:35:01.590Z,49.65
2019-05-02T07:37:29.657Z,48.23
2019-05-02T07:39:57.735Z,49.42
2019-05-02T07:42:26.015Z,48.28
2019-05-02T07:44:54.095Z,47.78
2019-05-02T07:47:22.213Z,49.63
2019-05-02T07:49:50.331Z,49.35
2019-05-02T07:52:18.692Z,49.30
2019-05-02T07:54:46.947Z,48.25
2019-05-02T07:57:15.611Z,47.53
2019-05-02T07:59:43.881Z,48.02
2019-05-02T08:02:12.075Z,48.02
2019-05-02T08:04:43.662Z,48.17
2019-05-02T08:07:09.907Z,49.65
2019-05-02T08:09:39.208Z,49.83
2019-05-02T08:12:08.039Z,50.80
2019-05-02T08:14:36.418Z,49.25
2019-05-02T08:17:05.979Z,47.50
2019-05-02T08:19:37.644Z,51.23
2019-05-02T08:22:13.000Z,49.90
2019-05-02T08:24:37.932Z,48.60
2019-05-02T08:27:34.739Z,48.68
2019-05-02T08:30:04.382Z,48.60
2019-05-02T08:32:31.016Z,49.75
2019-05-02T08:34:59.139Z,47.33
2019-05-02T08:37:27.252Z,47.93
2019-05-02T08:39:55.321Z,48.92
2019-05-02T08:42:27.840Z,50.67
2019-05-02T08:44:56.287Z,49.40
2019-05-02T08:47:23.880Z,48.10
2019-05-02T08:49:54.857Z,49.20
2019-05-02T08:52:23.939Z,48.27
2019-05-02T08:54:52.015Z,48.20
2019-05-02T08:57:20.100Z,48.45
2019-05-02T08:59:48.313Z,45.58
2019-05-02T09:02:16.495Z,46.48
2019-05-02T09:04:44.611Z,46.45
2019-05-02T09:07:12.747Z,46.88
2019-05-02T09:09:40.822Z,46.68
2019-05-02T09:12:12.501Z,46.40
2019-05-02T09:14:39.196Z,47.40
2019-05-02T09:17:13.551Z,46.80
2019-05-02T09:19:37.061Z,47.70
2019-05-02T09:22:07.466Z,48.48
2019-05-02T09:24:35.164Z,47.48
2019-05-02T09:27:03.283Z,47.25
2019-05-02T09:29:32.698Z,47.98
2019-05-02T09:32:02.159Z,46.98
2019-05-02T09:34:31.936Z,46.00
2019-05-02T09:37:00.083Z,43.35
2019-05-02T09:39:32.764Z,44.27
2019-05-02T09:41:58.538Z,44.30
2019-05-02T09:44:26.666Z,44.08
2019-05-02T09:46:56.951Z,44.77
2019-05-02T09:49:24.483Z,44.38
2019-05-02T09:51:59.393Z,45.00
2019-05-02T09:54:22.981Z,43.85
2019-05-02T09:56:52.363Z,44.77
2019-05-02T09:59:29.289Z,43.20
2019-05-02T10:01:52.735Z,44.13
2019-05-02T10:04:22.412Z,41.08
2019-05-02T10:06:52.536Z,42.30
2019-05-02T10:09:24.083Z,42.13
2019-05-02T10:11:52.339Z,42.15
2019-05-02T10:14:19.974Z,42.43
2019-05-02T10:16:48.058Z,41.57
2019-05-02T10:19:16.275Z,40.40
2019-05-02T10:21:46.869Z,41.65
2019-05-02T10:24:14.250Z,41.03
2019-05-02T10:26:42.467Z,38.88
2019-05-02T10:29:12.676Z,38.50
2019-05-02T10:31:42.109Z,39.40
2019-05-02T10:34:16.171Z,38.23
2019-05-02T10:36:43.261Z,37.55
2019-05-02T10:39:13.485Z,37.48
2019-05-02T10:41:41.112Z,38.15
2019-05-02T10:44:09.279Z,37.50
2019-05-02T10:46:56.004Z,36.50
2019-05-02T10:49:32.370Z,36.75
2019-05-02T10:52:02.510Z,35.95
2019-05-02T10:54:33.866Z,36.75
2019-05-02T10:57:02.181Z,36.20
2019-05-02T10:59:29.872Z,36.80
2019-05-02T11:02:19.868Z,36.83
2019-05-02T11:04:52.540Z,37.45
2019-05-02T11:07:24.983Z,36.25
2019-05-02T11:09:52.425Z,37.30
2019-05-02T11:12:46.919Z,38.55
2019-05-02T11:15:32.751Z,38.17
2019-05-02T11:18:02.303Z,38.80
2019-05-02T11:20:31.868Z,37.65
2019-05-02T11:23:02.087Z,38.30
2019-05-02T11:25:31.732Z,36.50
2019-05-02T11:28:05.465Z,37.35
2019-05-02T11:30:29.303Z,33.53
2019-05-02T11:32:57.484Z,36.03
2019-05-02T11:35:25.860Z,35.78
2019-05-02T11:37:54.157Z,35.78
2019-05-02T11:40:22.778Z,35.25
2019-05-02T11:42:52.247Z,36.23
2019-05-02T11:45:22.602Z,39.23
2019-05-02T11:47:50.190Z,43.10
2019-05-02T11:50:18.352Z,48.60
2019-05-02T11:52:46.443Z,51.85
2019-05-02T11:55:14.529Z,53.38
2019-05-02T11:57:42.776Z,61.85
2019-05-02T12:00:12.442Z,66.35
2019-05-02T12:02:58.872Z,64.93
2019-05-02T12:05:35.541Z,68.47
2019-05-02T12:08:08.008Z,66.07
2019-05-02T12:10:33.011Z,64.20
2019-05-02T12:13:06.692Z,65.12
2019-05-02T12:15:32.963Z,66.45
2019-05-02T12:18:02.501Z,65.28
2019-05-02T12:20:33.907Z,62.15
2019-05-02T12:23:02.114Z,61.05
2019-05-02T12:25:30.282Z,57.85
2019-05-02T12:27:58.352Z,58.78
2019-05-02T12:30:28.922Z,58.23
2019-05-02T12:32:56.240Z,58.23
2019-05-02T12:35:24.309Z,54.42
2019-05-02T12:37:55.206Z,56.63
2019-05-02T12:40:22.229Z,58.58
2019-05-02T12:42:52.465Z,53.50
2019-05-02T12:45:21.945Z,58.25
2019-05-02T12:47:52.239Z,59.83
2019-05-02T12:50:19.941Z,60.65
2019-05-02T12:52:48.169Z,60.12
2019-05-02T12:55:16.348Z,60.45
2019-05-02T12:57:44.469Z,56.95
2019-05-02T13:00:13.006Z,58.83
2019-05-02T13:02:48.779Z,58.50
2019-05-02T13:05:17.009Z,59.20
2019-05-02T13:07:50.352Z,57.17
2019-05-02T13:10:21.921Z,59.40
2019-05-02T13:12:50.203Z,57.83
2019-05-02T13:15:18.295Z,59.33
2019-05-02T13:17:48.958Z,54.53
2019-05-02T13:20:18.408Z,54.33
2019-05-02T13:23:08.876Z,54.93
2019-05-02T13:25:37.297Z,55.88
2019-05-02T13:28:05.587Z,57.55
2019-05-02T13:30:46.617Z,58.35
2019-05-02T13:33:22.720Z,58.28
2019-05-02T13:35:54.580Z,55.55
2019-05-02T13:38:23.027Z,54.63
2019-05-02T13:40:51.830Z,47.40
2019-05-02T13:43:21.859Z,47.10
2019-05-02T13:46:18.359Z,45.88
2019-05-02T13:48:46.477Z,43.92
2019-05-02T13:51:14.682Z,43.92
2019-05-02T13:53:57.639Z,40.55
2019-05-02T13:56:47.653Z,41.50
2019-05-02T13:59:16.158Z,40.00
2019-05-02T14:01:44.723Z,40.90
2019-05-02T14:04:14.925Z,39.25
2019-05-02T14:06:42.561Z,37.17
2019-05-02T14:09:26.483Z,37.90
2019-05-02T14:12:02.129Z,35.25
2019-05-02T14:14:30.220Z,33.78
2019-05-02T14:16:58.335Z,32.17
2019-05-02T14:19:26.420Z,32.83
2019-05-02T14:21:54.532Z,30.72
2019-05-02T14:24:23.176Z,29.45
2019-05-02T14:26:52.557Z,28.42
2019-05-02T14:29:21.708Z,29.72
2019-05-02T14:31:51.817Z,30.00
2019-05-02T14:34:28.180Z,29.10
2019-05-02T14:36:59.151Z,30.05
2019-05-02T14:39:26.024Z,26.97
2019-05-02T14:41:54.141Z,27.40
2019-05-02T14:44:26.869Z,26.30
2019-05-02T14:46:52.379Z,26.80
2019-05-02T14:49:22.005Z,24.63
2019-05-02T14:51:52.367Z,25.57
2019-05-02T14:54:20.093Z,24.80
2019-05-02T14:57:07.193Z,24.85
2019-05-02T14:59:35.459Z,22.73
2019-05-02T15:02:07.740Z,22.37
2019-05-02T15:04:38.205Z,20.87
2019-05-02T15:07:05.928Z,20.97
2019-05-02T15:09:36.117Z,20.80
2019-05-02T15:12:13.826Z,21.02
2019-05-02T15:14:34.371Z,21.87
2019-05-02T15:17:02.891Z,20.72
2019-05-02T15:20:10.323Z,21.33
2019-05-02T15:22:39.522Z,21.12
2019-05-02T15:25:13.656Z,22.17
2019-05-02T15:27:42.484Z,21.48
2019-05-02T15:30:12.560Z,21.67
2019-05-02T15:32:58.896Z,21.12
2019-05-02T15:35:49.833Z,20.82
2019-05-02T15:38:27.076Z,20.40
2019-05-02T15:40:51.467Z,21.12
2019-05-02T15:43:22.199Z,20.65
2019-05-02T15:45:52.673Z,20.62
2019-05-02T15:48:27.251Z,19.55
2019-05-02T15:50:55.330Z,18.33
2019-05-02T15:54:01.984Z,17.90
2019-05-02T15:56:22.192Z,18.35
2019-05-02T15:58:52.414Z,18.05
2019-05-02T16:01:41.223Z,18.17
2019-05-02T16:04:12.732Z,17.10
2019-05-02T16:06:41.989Z,17.45
2019-05-02T16:09:11.853Z,16.52
2019-05-02T16:11:41.161Z,16.70
2019-05-02T16:14:10.432Z,16.30
2019-05-02T16:16:45.091Z,15.48
2019-05-02T16:19:14.698Z,15.10
2019-05-02T16:21:52.036Z,14.80
2019-05-02T16:24:23.043Z,13.43
2019-05-02T16:26:56.429Z,11.55
2019-05-02T16:29:28.485Z,10.18
2019-05-02T16:32:35.767Z,9.88
2019-05-02T16:35:12.421Z,8.40
2019-05-02T16:37:37.968Z,8.90
2019-05-02T16:40:07.918Z,8.53
2019-05-02T16:42:37.441Z,9.23
2019-05-02T16:45:08.135Z,9.18
2019-05-02T16:47:37.362Z,8.30
2019-05-02T16:50:08.547Z,8.85
2019-05-02T16:52:42.525Z,10.03
2019-05-02T16:55:13.696Z,10.87
2019-05-02T16:57:42.290Z,10.35
2019-05-02T17:00:13.523Z,10.75
2019-05-02T17:02:46.273Z,10.10
2019-05-02T17:05:13.910Z,9.93
2019-05-02T17:08:20.033Z,9.90
2019-05-02T17:10:55.783Z,9.90
2019-05-02T17:13:27.580Z,8.90
2019-05-02T17:15:54.298Z,9.00
2019-05-02T17:18:23.544Z,8.88
2019-05-02T17:20:56.656Z,7.95
2019-05-02T17:23:23.716Z,7.30
2019-05-02T17:25:52.879Z,6.95
2019-05-02T17:28:22.370Z,6.87
2019-05-02T17:30:52.465Z,5.80
2019-05-02T17:33:21.904Z,5.58
2019-05-02T17:35:52.294Z,5.28
2019-05-02T17:38:27.347Z,5.30
2019-05-02T17:40:58.812Z,5.20
2019-05-02T17:43:25.385Z,5.00
2019-05-02T17:45:56.393Z,5.08
2019-05-02T17:48:25.801Z,5.10
2019-05-02T17:51:28.355Z,4.90
2019-05-02T17:53:56.840Z,4.72
2019-05-02T17:56:27.615Z,4.30
2019-05-02T17:58:58.285Z,4.00
2019-05-02T18:01:35.030Z,3.67
2019-05-02T18:04:06.718Z,3.60
2019-05-02T18:06:35.692Z,3.27
2019-05-02T18:09:07.675Z,3.62
2019-05-02T18:11:37.882Z,3.45
2019-05-02T18:14:18.956Z,3.30
2019-05-02T18:16:39.373Z,3.08
2019-05-02T18:19:08.863Z,3.00
2019-05-02T18:21:38.131Z,2.92
2019-05-02T18:24:07.537Z,3.15
2019-05-02T18:26:37.294Z,3.20
2019-05-02T18:29:07.502Z,3.17
2019-05-02T18:31:39.666Z,3.00
2019-05-02T18:34:14.244Z,2.92
2019-05-02T18:36:42.527Z,2.60
2019-05-02T18:39:12.999Z,2.70
2019-05-02T18:41:46.258Z,2.75
2019-05-02T18:44:17.040Z,2.70
2019-05-02T18:46:44.487Z,2.58
2019-05-02T18:49:17.043Z,2.70
2019-05-02T18:51:48.237Z,2.60
2019-05-02T18:54:18.088Z,2.55
2019-05-02T18:56:51.150Z,2.60
2019-05-02T18:59:19.881Z,2.85
2019-05-02T19:01:52.660Z,2.70
2019-05-02T19:04:25.238Z,2.50
2019-05-02T19:06:55.975Z,3.00
2019-05-02T19:09:29.888Z,3.10
2019-05-02T19:12:05.367Z,2.87
2019-05-02T19:14:29.213Z,3.00
2019-05-02T19:17:05.443Z,2.98
2019-05-02T19:19:33.068Z,3.22
2019-05-02T19:22:02.681Z,3.25
2019-05-02T19:24:36.601Z,3.15
2019-05-02T19:27:06.685Z,3.35
2019-05-02T19:29:35.899Z,3.37
2019-05-02T19:32:08.711Z,3.55
2019-05-02T19:34:38.792Z,3.50
2019-05-02T19:37:08.293Z,3.33
2019-05-02T19:39:43.553Z,4.05
2019-05-02T19:42:12.163Z,4.00
2019-05-02T19:44:42.501Z,4.10
2019-05-02T19:47:17.489Z,5.40
2019-05-02T19:49:47.352Z,5.25
2019-05-02T19:52:17.750Z,5.50
2019-05-02T19:54:47.013Z,5.95
2019-05-02T19:57:17.283Z,5.85
2019-05-02T19:59:47.599Z,5.17
2019-05-02T20:02:16.921Z,4.50
2019-05-02T20:04:46.385Z,4.50
2019-05-02T20:07:16.110Z,4.50
2019-05-02T20:09:47.204Z,4.65
2019-05-02T20:12:16.944Z,4.40
2019-05-02T20:14:48.761Z,4.15
2019-05-02T20:17:19.982Z,3.90
2019-05-02T20:19:57.764Z,4.37
2019-05-02T20:22:24.869Z,4.30
2019-05-02T20:25:00.705Z,4.22
2019-05-02T20:27:29.482Z,4.03
2019-05-02T20:29:58.864Z,4.65
2019-05-02T20:32:28.044Z,4.40
2019-05-02T20:34:57.375Z,4.50
2019-05-02T20:37:26.749Z,4.80
2019-05-02T20:39:56.283Z,4.83
2019-05-02T20:42:25.593Z,5.03
2019-05-02T20:44:57.024Z,4.85
2019-05-02T20:47:27.238Z,4.97
2019-05-02T20:49:56.525Z,4.75
2019-05-02T20:52:25.754Z,4.78
2019-05-02T20:54:54.979Z,5.28
2019-05-02T20:57:24.282Z,5.30
2019-05-02T20:59:53.567Z,5.37
2019-05-02T21:02:22.805Z,5.62
2019-05-02T21:04:52.365Z,5.70
2019-05-02T21:07:37.662Z,5.78
2019-05-02T21:10:12.511Z,5.75
2019-05-02T21:12:42.137Z,6.10
2019-05-02T21:15:12.482Z,5.80
2019-05-02T21:17:42.389Z,5.65
2019-05-02T21:20:12.488Z,6.30
2019-05-02T21:22:42.198Z,6.12
2019-05-02T21:25:13.006Z,6.20
2019-05-02T21:27:42.899Z,6.03
2019-05-02T21:30:12.539Z,6.22
2019-05-02T21:32:42.812Z,6.62
2019-05-02T21:35:13.411Z,7.03
2019-05-02T21:37:42.733Z,6.97
2019-05-02T21:40:11.970Z,7.17
2019-05-02T21:42:42.490Z,7.37
2019-05-02T21:45:13.170Z,8.38
2019-05-02T21:47:43.675Z,7.85
2019-05-02T21:50:21.649Z,7.83
2019-05-02T21:53:12.798Z,7.78
2019-05-02T21:55:53.516Z,7.83
2019-05-02T21:58:22.699Z,7.92
2019-05-02T22:01:02.040Z,7.30
2019-05-02T22:03:32.432Z,7.83
2019-05-02T22:06:01.756Z,8.00
2019-05-02T22:08:32.366Z,8.43
2019-05-02T22:11:01.774Z,7.95
2019-05-02T22:13:31.595Z,8.65
2019-05-02T22:16:02.427Z,8.70
2019-05-02T22:18:32.134Z,9.03
2019-05-02T22:21:01.774Z,9.15
2019-05-02T22:23:31.811Z,8.78
2019-05-02T22:26:04.004Z,8.65
2019-05-02T22:28:33.254Z,8.80
2019-05-02T22:31:03.196Z,8.15
2019-05-02T22:33:32.887Z,8.63
2019-05-02T22:36:02.176Z,9.10
2019-05-02T22:38:59.571Z,9.15
2019-05-02T22:41:29.855Z,9.05
2019-05-02T22:44:01.722Z,8.80
2019-05-02T22:46:44.067Z,9.07
2019-05-02T22:49:15.080Z,10.03
2019-05-02T22:51:44.943Z,9.00
2019-05-02T22:54:26.645Z,8.78
2019-05-02T22:56:45.095Z,9.20
2019-05-02T22:59:14.263Z,9.38
2019-05-02T23:01:43.440Z,10.00
2019-05-02T23:04:12.934Z,9.93
2019-05-02T23:06:44.165Z,9.95
2019-05-02T23:09:13.165Z,9.40
2019-05-02T23:11:42.803Z,9.55
2019-05-02T23:14:12.083Z,9.80
2019-05-02T23:16:42.713Z,9.70
2019-05-02T23:19:12.511Z,9.40
2019-05-02T23:21:42.410Z,9.57
2019-05-02T23:24:19.722Z,9.15
2019-05-02T23:27:07.287Z,9.70
2019-05-02T23:29:35.375Z,9.10
2019-05-02T23:32:03.562Z,9.80
2019-05-02T23:34:32.348Z,9.40
2019-05-02T23:37:02.460Z,9.90
2019-05-02T23:39:32.268Z,9.20
2019-05-02T23:42:01.927Z,9.43
2019-05-02T23:44:30.287Z,9.40
2019-05-02T23:46:58.411Z,9.30
2019-05-02T23:49:26.506Z,9.00
2019-05-02T23:51:54.671Z,8.95
2019-05-02T23:54:22.724Z,8.67
2019-05-02T23:56:51.062Z,9.35
2019-05-02T23:59:19.633Z,9.58
